Weather at Dakhla Airport

Public forecast

Using degrees Celsius for public forecast. Weather courtesy of forecast.io.

Closest aviation weather report (METAR) to Dakhla Airport

Closest report is Asyut International Airport, 146.4 nm (271.2 km) NE. Retrieved 2021/08/06 02:00 UTC (14 minutes ago):

HEAT 060200Z 28004KT CAVOK 28/04 Q1007 NOSIG

Closest aviation forecast (TAF) to Dakhla Airport

Closest forecast is Asyut International Airport, 146.4 nm (271.2 km) NE. Retrieved 2021-08-06 00:00 UTC (2 hours ago):

TAF HEAT 052300Z 0600/0706 25010KT CAVOK